LFPM 071600Z AUTO 12006KT CAVOK 23/05 Q1025

Les avions qui composent notre flotte

Avion Robin DR400-180

Idéal pour les voyages, équipé d'un Pilote Automatique

F-GGJV


F-GGJV Planche